Time;durP1;ratioP1;P1;durP2;ratioP2;P2;SDS_P1;SDS_P2;PMS_P1;PMS_P2;Temp;Humidity;BMP_temperature;BMP_pressure;BME280_temperature;BME280_humidity;BME280_pressure;Samples;Min_cycle;Max_cycle;Signal;HPM_P1;HPM_P2
2023/09/08 00:01:09;;;;;;;3.27;3.00;;;;;;;-143.84;60.03;45077.63;5071791;28;20437;-57
2023/09/08 00:03:36;;;;;;;5.10;3.30;;;;;;;-143.84;60.04;45064.31;5071457;28;20495;-57
2023/09/08 00:06:04;;;;;;;4.10;3.40;;;;;;;-143.84;59.75;45064.31;5071390;28;20470;-57
2023/09/08 00:08:31;;;;;;;5.03;3.30;;;;;;;-143.84;59.61;45075.72;5071298;28;20447;-58
2023/09/08 00:10:58;;;;;;;4.43;3.83;;;;;;;-143.84;59.32;45083.34;5071028;28;20825;-57
2023/09/08 00:13:25;;;;;;;3.50;3.20;;;;;;;-143.84;59.17;45070.00;5071424;28;20434;-57
2023/09/08 00:15:54;;;;;;;4.97;3.60;;;;;;;-143.84;58.91;45052.88;5071775;28;20479;-58
2023/09/08 00:18:21;;;;;;;5.90;3.20;;;;;;;-143.84;58.46;45049.06;5071349;28;21448;-57
2023/09/08 00:20:48;;;;;;;4.90;3.20;;;;;;;-143.84;58.59;45066.22;5071984;28;21303;-55
2023/09/08 00:23:15;;;;;;;6.10;3.40;;;;;;;-143.84;58.30;45041.44;5071720;28;20483;-55
2023/09/08 00:25:42;;;;;;;3.63;3.10;;;;;;;-143.84;58.09;45068.13;5071328;28;20445;-55
2023/09/08 00:28:10;;;;;;;3.90;3.47;;;;;;;-143.84;57.87;45062.41;5071852;28;20445;-55
2023/09/08 00:30:37;;;;;;;6.20;3.83;;;;;;;-143.84;57.64;45070.00;5071293;28;21326;-53
2023/09/08 00:33:08;;;;;;;4.80;2.83;;;;;;;-143.84;56.99;45075.72;5071240;28;20554;-53
2023/09/08 00:35:36;;;;;;;3.67;3.07;;;;;;;-143.84;56.66;45052.88;5070954;28;20982;-53
2023/09/08 00:38:03;;;;;;;3.93;3.63;;;;;;;-143.84;56.20;45060.50;5070752;28;20502;-57
2023/09/08 00:40:30;;;;;;;5.53;3.30;;;;;;;-143.84;55.98;45026.22;5070187;28;20444;-57
2023/09/08 00:42:57;;;;;;;3.30;3.10;;;;;;;-143.84;55.86;45068.13;5070584;28;20476;-57
2023/09/08 00:45:24;;;;;;;3.87;3.57;;;;;;;-143.84;55.17;45075.72;5070881;28;20449;-59
2023/09/08 00:47:52;;;;;;;5.07;3.43;;;;;;;-143.84;55.13;45054.78;5070574;28;20457;-56
2023/09/08 00:50:20;;;;;;;6.13;3.73;;;;;;;-143.84;55.08;45071.91;5070921;28;20936;-56
2023/09/08 00:52:48;;;;;;;5.80;3.37;;;;;;;-143.84;55.12;45035.75;5070561;28;20453;-56
2023/09/08 00:55:15;;;;;;;3.30;3.10;;;;;;;-143.84;54.51;45043.34;5070417;28;20463;-56
2023/09/08 00:57:42;;;;;;;4.67;3.27;;;;;;;-143.84;54.32;45052.88;5070403;28;20456;-56
2023/09/08 01:00:11;;;;;;;4.17;3.43;;;;;;;-143.84;53.89;45085.25;5070397;28;20476;-56
2023/09/08 01:02:38;;;;;;;6.20;3.70;;;;;;;-143.84;53.82;45050.97;5070272;28;20480;-56
2023/09/08 01:05:06;;;;;;;3.53;3.23;;;;;;;-143.84;53.32;45064.31;5070180;28;20530;-56
2023/09/08 01:07:36;;;;;;;5.30;3.37;;;;;;;-143.84;52.98;45064.31;5070559;28;20864;-56
2023/09/08 01:10:05;;;;;;;3.77;3.37;;;;;;;-143.84;52.98;45071.91;5070320;28;20476;-55
2023/09/08 01:12:33;;;;;;;4.70;3.33;;;;;;;-143.84;52.53;45054.78;5070185;28;20437;-55
2023/09/08 01:15:00;;;;;;;3.70;3.40;;;;;;;-143.84;52.22;45041.44;5070465;28;20927;-55
2023/09/08 01:17:27;;;;;;;3.93;3.43;;;;;;;-143.84;52.22;45071.91;5070098;28;20472;-55
2023/09/08 01:19:57;;;;;;;11.13;3.43;;;;;;;-143.84;51.91;45045.25;5070531;28;20437;-55
2023/09/08 01:22:46;;;;;;;6.03;3.17;;;;;;;-143.84;51.63;45064.31;5070302;28;20449;-55
2023/09/08 01:25:22;;;;;;;3.50;3.20;;;;;;;-143.84;51.58;45062.41;5070480;28;20503;-55
2023/09/08 01:27:53;;;;;;;11.10;3.83;;;;;;;-143.84;51.45;45073.81;5070059;28;20506;-55
2023/09/08 01:30:21;;;;;;;6.53;3.50;;;;;;;-143.84;51.20;45073.81;5070060;28;20922;-55
2023/09/08 01:32:49;;;;;;;3.27;3.07;;;;;;;-143.84;51.13;45083.34;5069827;28;20472;-55
2023/09/08 01:35:17;;;;;;;9.57;3.40;;;;;;;-143.84;50.88;45054.78;5070155;28;20436;-55
2023/09/08 01:37:46;;;;;;;4.73;2.90;;;;;;;-143.84;50.56;45081.44;5069797;28;20437;-53
2023/09/08 01:40:14;;;;;;;4.47;3.30;;;;;;;-143.84;50.69;45075.72;5069948;28;20449;-53
2023/09/08 01:42:43;;;;;;;4.93;3.80;;;;;;;-143.84;50.58;45039.53;5069529;28;20533;-53
2023/09/08 01:45:10;;;;;;;6.10;3.43;;;;;;;-143.84;50.20;45049.06;5069884;28;20437;-53
2023/09/08 01:47:38;;;;;;;4.53;3.50;;;;;;;-143.84;50.06;45064.31;5069715;28;20460;-53
2023/09/08 01:50:06;;;;;;;10.80;3.30;;;;;;;-143.84;49.98;45075.72;5069631;28;20853;-53
2023/09/08 01:52:33;;;;;;;6.43;2.80;;;;;;;-143.84;49.73;45054.78;5068180;28;21016;-53
2023/09/08 01:55:00;;;;;;;4.73;3.37;;;;;;;-143.84;49.76;45064.31;5069013;28;20957;-53
2023/09/08 01:57:27;;;;;;;4.13;3.40;;;;;;;-143.84;49.92;45071.91;5062678;28;20507;-53
2023/09/08 01:59:55;;;;;;;3.40;3.10;;;;;;;-143.84;49.96;45062.41;5067922;28;20481;-53
2023/09/08 02:02:23;;;;;;;3.00;2.80;;;;;;;-143.84;49.89;45062.41;5069304;28;20441;-53
2023/09/08 02:04:50;;;;;;;5.63;3.40;;;;;;;-143.84;50.30;45077.63;5068982;28;20553;-54
2023/09/08 02:07:17;;;;;;;4.40;3.27;;;;;;;-143.84;49.76;45071.91;5069297;28;20534;-54
2023/09/08 02:09:44;;;;;;;6.57;3.17;;;;;;;-143.84;49.80;45062.41;5067602;28;20498;-53
2023/09/08 02:12:11;;;;;;;3.97;3.40;;;;;;;-143.84;49.71;45043.34;5069074;28;20445;-53
2023/09/08 02:14:38;;;;;;;3.70;3.40;;;;;;;-143.84;49.85;45056.69;5068686;28;20448;-52
2023/09/08 02:17:07;;;;;;;3.40;3.10;;;;;;;-143.84;49.62;45070.00;5068916;28;20535;-53
2023/09/08 02:19:34;;;;;;;4.67;2.90;;;;;;;-143.84;49.55;45090.97;5068611;28;20460;-52
2023/09/08 02:22:01;;;;;;;6.60;3.27;;;;;;;-143.84;49.54;45085.25;5068713;28;20444;-52
2023/09/08 02:24:28;;;;;;;7.00;3.50;;;;;;;-143.84;49.80;45066.22;5068395;28;20472;-52
2023/09/08 02:26:55;;;;;;;2.90;2.70;;;;;;;-143.84;49.61;45075.72;5069205;28;20437;-52
2023/09/08 02:29:23;;;;;;;3.50;3.20;;;;;;;-143.84;49.91;45050.97;5068606;28;20514;-53
2023/09/08 02:31:51;;;;;;;4.07;3.40;;;;;;;-143.84;49.31;45062.41;5068701;28;20435;-53
2023/09/08 02:34:19;;;;;;;3.70;3.40;;;;;;;-143.84;49.60;45071.91;5068724;28;20506;-52
2023/09/08 02:36:47;;;;;;;3.77;2.80;;;;;;;-143.84;49.66;45052.88;5068747;28;20866;-53
2023/09/08 02:39:15;;;;;;;7.60;3.80;;;;;;;-143.84;49.42;45073.81;5068380;28;20475;-52
2023/09/08 02:41:42;;;;;;;4.40;2.90;;;;;;;-143.84;49.57;45041.44;5068258;28;20850;-52
2023/09/08 02:44:09;;;;;;;5.00;3.50;;;;;;;-143.84;49.48;45070.00;5067971;28;20837;-52
2023/09/08 02:46:36;;;;;;;6.30;3.17;;;;;;;-143.84;49.64;45041.44;5068256;28;20456;-52
2023/09/08 02:49:04;;;;;;;6.50;3.70;;;;;;;-143.84;49.72;45075.72;5068655;28;20453;-53
2023/09/08 02:51:32;;;;;;;3.50;3.20;;;;;;;-143.84;49.37;45062.41;5068678;28;20433;-52
2023/09/08 02:53:59;;;;;;;3.00;2.80;;;;;;;-143.84;49.61;45083.34;5068599;28;20441;-53
2023/09/08 02:56:26;;;;;;;5.53;2.90;;;;;;;-143.84;49.56;45058.59;5068655;28;20432;-52
2023/09/08 02:58:53;;;;;;;3.73;3.10;;;;;;;-143.84;49.37;45073.81;5068010;28;20548;-52
2023/09/08 03:01:21;;;;;;;4.37;3.03;;;;;;;-143.84;49.09;45056.69;5068415;28;21028;-52
2023/09/08 03:03:48;;;;;;;3.40;3.07;;;;;;;-143.84;49.36;45031.94;5068112;28;20480;-55
2023/09/08 03:06:16;;;;;;;7.53;3.47;;;;;;;-143.84;49.94;45045.25;5068481;28;20954;-55
2023/09/08 03:08:45;;;;;;;7.43;3.37;;;;;;;-143.84;49.55;45049.06;5068403;28;20441;-55
2023/09/08 03:11:12;;;;;;;8.73;3.20;;;;;;;-143.84;49.48;45081.44;5067856;28;20491;-55
2023/09/08 03:13:39;;;;;;;8.20;3.07;;;;;;;-143.84;49.45;45071.91;5067918;28;20459;-55
2023/09/08 03:16:07;;;;;;;7.03;3.10;;;;;;;-143.84;49.90;45073.81;5068063;28;20441;-55
2023/09/08 03:18:36;;;;;;;5.37;2.93;;;;;;;-143.84;49.83;45054.78;5067860;28;20443;-55
2023/09/08 03:21:08;;;;;;;3.80;3.50;;;;;;;-143.84;50.36;45060.50;5068758;28;20495;-55
2023/09/08 03:23:36;;;;;;;3.43;3.00;;;;;;;-143.84;50.55;45037.66;5067635;28;20985;-55
2023/09/08 03:26:05;;;;;;;3.97;2.73;;;;;;;-143.84;50.48;45052.88;5068252;28;20463;-55
2023/09/08 03:28:33;;;;;;;3.93;2.73;;;;;;;-143.84;51.06;45071.91;5067673;28;20476;-55
2023/09/08 03:31:00;;;;;;;10.13;3.93;;;;;;;-143.84;51.07;45071.91;5067899;28;20444;-55
2023/09/08 03:33:27;;;;;;;3.50;2.60;;;;;;;-143.84;51.56;45049.06;5056490;28;20801;-55
2023/09/08 03:35:55;;;;;;;5.37;3.00;;;;;;;-143.84;52.01;45070.00;5062808;28;20451;-55
2023/09/08 03:38:22;;;;;;;9.40;3.10;;;;;;;-143.84;52.55;45022.41;5068077;28;20792;-55
2023/09/08 03:40:49;;;;;;;5.90;3.90;;;;;;;-143.84;52.59;45077.63;5067228;28;20444;-55
2023/09/08 03:43:18;;;;;;;4.50;3.30;;;;;;;-143.84;53.04;45050.97;5067247;28;20455;-55
2023/09/08 03:45:45;;;;;;;8.13;2.40;;;;;;;-143.84;53.41;45052.88;5067649;28;20829;-55
2023/09/08 03:48:12;;;;;;;5.73;3.27;;;;;;;-143.84;53.48;45041.44;5067869;28;20445;-55
2023/09/08 03:50:39;;;;;;;5.20;3.03;;;;;;;-143.84;53.42;45094.78;5067398;28;20463;-55
2023/09/08 03:53:07;;;;;;;2.93;2.73;;;;;;;-143.84;54.06;45054.78;5067919;28;20875;-55
2023/09/08 03:55:34;;;;;;;10.40;3.40;;;;;;;-143.84;53.99;45077.63;5064998;28;20896;-55
2023/09/08 03:58:01;;;;;;;3.13;2.80;;;;;;;-143.84;54.40;45052.88;5067494;28;20448;-55
2023/09/08 04:00:30;;;;;;;4.23;2.97;;;;;;;-143.84;54.35;45043.34;5067362;28;20484;-55
2023/09/08 04:02:57;;;;;;;4.03;3.13;;;;;;;-143.84;54.62;45049.06;5067085;28;20464;-56
2023/09/08 04:05:24;;;;;;;3.73;3.43;;;;;;;-143.84;54.70;45064.31;5067333;28;20508;-56
2023/09/08 04:07:51;;;;;;;9.53;3.60;;;;;;;-143.84;54.64;45037.66;5067564;28;20441;-56
2023/09/08 04:10:19;;;;;;;3.00;2.80;;;;;;;-143.84;54.83;45043.34;5067571;28;20444;-56
2023/09/08 04:12:46;;;;;;;11.00;4.07;;;;;;;-143.84;55.16;45049.06;5067291;28;20452;-56
2023/09/08 04:15:13;;;;;;;5.63;3.27;;;;;;;-143.84;55.00;45064.31;5067396;28;20457;-56
2023/09/08 04:17:41;;;;;;;5.63;3.17;;;;;;;-143.84;55.06;45052.88;5071200;28;20806;-56
2023/09/08 04:20:09;;;;;;;6.03;3.30;;;;;;;-143.84;55.07;45066.22;5070790;28;21082;-56
2023/09/08 04:22:37;;;;;;;3.23;2.93;;;;;;;-143.84;55.31;45047.16;5070714;28;20457;-56
2023/09/08 04:25:05;;;;;;;7.60;3.10;;;;;;;-143.84;55.40;45043.34;5071046;28;21112;-56
2023/09/08 04:27:35;;;;;;;5.00;2.90;;;;;;;-143.84;56.32;45070.00;5070945;28;20535;-56
2023/09/08 04:30:02;;;;;;;5.43;3.30;;;;;;;-143.84;56.63;45068.13;5070417;28;20444;-56
2023/09/08 04:32:30;;;;;;;5.03;3.03;;;;;;;-143.84;57.26;45075.72;5070997;28;20522;-56
2023/09/08 04:34:58;;;;;;;5.50;3.17;;;;;;;-143.84;57.73;45045.25;5070847;28;20440;-56
2023/09/08 04:37:25;;;;;;;8.13;3.47;;;;;;;-143.84;58.29;45070.00;5070654;28;20939;-56
2023/09/08 04:39:53;;;;;;;4.63;3.30;;;;;;;-143.84;58.64;45062.41;5070404;28;20993;-56
2023/09/08 04:42:20;;;;;;;4.57;3.50;;;;;;;-143.84;59.21;45052.88;5070736;28;20448;-56
2023/09/08 04:44:47;;;;;;;6.23;3.27;;;;;;;-143.84;59.84;45041.44;5070598;28;20892;-56
2023/09/08 04:47:14;;;;;;;13.07;4.20;;;;;;;-143.84;61.18;45060.50;5070585;28;20445;-56
2023/09/08 04:49:41;;;;;;;5.90;3.97;;;;;;;-143.84;61.29;45050.97;5070703;28;20880;-56
2023/09/08 04:52:11;;;;;;;8.70;3.70;;;;;;;-143.84;61.53;45079.53;5070357;28;20444;-56
2023/09/08 04:54:38;;;;;;;8.83;3.53;;;;;;;-143.84;61.78;45071.91;5070042;28;20483;-56
2023/09/08 04:57:05;;;;;;;6.23;3.63;;;;;;;-143.84;61.52;45045.25;5070439;28;20880;-54
2023/09/08 04:59:33;;;;;;;5.70;3.53;;;;;;;-143.84;61.68;45049.06;5070101;28;20472;-57
2023/09/08 05:02:00;;;;;;;6.17;4.27;;;;;;;-143.84;61.35;45054.78;5070509;28;20432;-57
2023/09/08 05:04:27;;;;;;;9.73;4.37;;;;;;;-143.84;60.95;45033.84;5070215;28;20518;-57
2023/09/08 05:06:55;;;;;;;6.13;3.70;;;;;;;-143.84;60.63;45045.25;5070180;28;20449;-57
2023/09/08 05:09:23;;;;;;;5.20;3.93;;;;;;;-143.84;60.18;45026.22;5069851;28;21004;-57
2023/09/08 05:11:50;;;;;;;11.53;4.60;;;;;;;-143.84;59.78;45041.44;5069868;28;20457;-57
2023/09/08 05:14:17;;;;;;;10.07;3.53;;;;;;;-143.84;59.52;45028.13;5070284;28;20444;-57
2023/09/08 05:16:48;;;;;;;4.03;3.57;;;;;;;-143.84;58.78;45026.22;5070132;28;20440;-57
2023/09/08 05:19:15;;;;;;;6.70;4.50;;;;;;;-143.84;58.29;45022.41;5069734;28;20448;-57
2023/09/08 05:21:43;;;;;;;7.70;4.00;;;;;;;-143.84;57.58;44999.56;5069557;28;20441;-57
2023/09/08 05:24:11;;;;;;;13.43;4.03;;;;;;;-143.84;57.08;45043.34;5069258;28;20484;-57
2023/09/08 05:26:39;;;;;;;9.20;3.80;;;;;;;-143.84;56.77;45033.84;5069499;28;20460;-57
2023/09/08 05:29:06;;;;;;;10.23;4.57;;;;;;;-143.84;56.58;45020.50;5069902;28;20449;-58
2023/09/08 05:31:34;;;;;;;7.03;3.63;;;;;;;-143.84;56.40;45014.78;5069658;28;20821;-57
2023/09/08 05:34:01;;;;;;;5.70;3.90;;;;;;;-143.84;55.33;45016.69;5069506;28;20444;-57
2023/09/08 05:36:29;;;;;;;11.30;4.13;;;;;;;-143.84;55.37;44999.56;5069523;28;20448;-57
2023/09/08 05:38:56;;;;;;;6.27;4.20;;;;;;;-143.84;54.70;45022.41;5070063;28;20445;-57
2023/09/08 05:41:23;;;;;;;7.60;4.40;;;;;;;-143.84;53.66;45007.19;5069075;28;20804;-57
2023/09/08 05:43:52;;;;;;;6.20;3.93;;;;;;;-143.84;53.28;44991.94;5069316;28;20452;-57
2023/09/08 05:46:19;;;;;;;7.73;4.27;;;;;;;-143.84;52.52;44959.56;5069586;28;20448;-57
2023/09/08 05:48:47;;;;;;;4.90;4.03;;;;;;;-143.84;52.58;44999.56;5069616;28;20453;-57
2023/09/08 05:51:15;;;;;;;8.87;3.97;;;;;;;-143.84;52.48;44976.72;5069099;28;20997;-58
2023/09/08 05:53:42;;;;;;;16.53;4.87;;;;;;;-143.84;53.04;44984.31;5069187;28;20448;-57
2023/09/08 05:56:09;;;;;;;6.93;4.30;;;;;;;-143.84;52.42;44993.84;5069164;28;20448;-57
2023/09/08 05:58:36;;;;;;;5.97;4.40;;;;;;;-143.84;52.47;44959.56;5051958;28;20562;-57
2023/09/08 06:01:05;;;;;;;9.80;4.80;;;;;;;-143.84;52.66;44990.03;5069330;28;20464;-57
2023/09/08 06:03:32;;;;;;;5.00;3.70;;;;;;;-143.84;53.38;44993.84;5068942;28;20506;-57
2023/09/08 06:05:59;;;;;;;8.87;3.93;;;;;;;-143.84;52.92;44988.13;5069090;28;20860;-58
2023/09/08 06:08:26;;;;;;;5.90;3.83;;;;;;;-143.84;52.80;44974.81;5068933;28;20457;-57
2023/09/08 06:10:54;;;;;;;9.20;4.03;;;;;;;-143.84;52.81;44959.56;5068475;28;20471;-57
2023/09/08 06:13:21;;;;;;;9.50;4.60;;;;;;;-143.84;53.04;44974.81;5068847;28;20452;-57
2023/09/08 06:15:48;;;;;;;12.90;4.47;;;;;;;-143.84;52.67;44972.91;5068673;28;20475;-57
2023/09/08 06:18:16;;;;;;;6.00;4.40;;;;;;;-143.84;52.87;44974.81;5069368;28;20436;-57
2023/09/08 06:20:47;;;;;;;8.97;4.83;;;;;;;-143.84;52.06;44971.00;5068796;28;20453;-57
2023/09/08 06:23:14;;;;;;;7.63;4.80;;;;;;;-143.84;51.42;44978.63;5068820;28;20464;-57
2023/09/08 06:25:42;;;;;;;5.20;4.23;;;;;;;-143.84;51.32;44950.06;5068651;28;20489;-57
2023/09/08 06:28:09;;;;;;;12.53;5.20;;;;;;;-143.84;51.97;44965.28;5068293;28;20453;-57
2023/09/08 06:30:36;;;;;;;8.90;4.23;;;;;;;-143.84;51.41;44976.72;5068809;28;20843;-57
2023/09/08 06:33:03;;;;;;;5.87;4.10;;;;;;;-143.84;50.61;44969.09;5068461;28;20437;-57
2023/09/08 06:35:33;;;;;;;11.10;4.40;;;;;;;-143.84;50.22;44959.56;5068311;28;20441;-57
2023/09/08 06:38:00;;;;;;;8.87;4.37;;;;;;;-143.84;50.24;44967.19;5068427;28;20457;-57
2023/09/08 06:40:30;;;;;;;10.53;4.00;;;;;;;-143.84;48.96;44950.06;5067929;28;21005;-57
2023/09/08 06:42:58;;;;;;;12.30;3.83;;;;;;;-143.84;48.83;44940.53;5068416;28;20449;-57
2023/09/08 06:45:25;;;;;;;12.67;5.03;;;;;;;-143.84;48.68;44942.44;5068667;28;20551;-57
2023/09/08 06:47:54;;;;;;;4.47;3.90;;;;;;;-143.84;48.48;44938.63;5068093;28;20445;-58
2023/09/08 06:50:22;;;;;;;5.83;3.80;;;;;;;-143.84;47.95;44911.97;5068318;28;21263;-57
2023/09/08 06:52:50;;;;;;;9.47;4.20;;;;;;;-143.84;47.67;44929.09;5068909;28;21294;-57
2023/09/08 06:55:18;;;;;;;10.83;4.50;;;;;;;-143.84;48.23;44927.19;5068284;28;20457;-57
2023/09/08 06:57:45;;;;;;;7.17;4.10;;;;;;;-143.84;46.80;44896.75;5068434;28;20455;-57
2023/09/08 07:00:13;;;;;;;10.33;4.00;;;;;;;-143.84;46.41;44910.06;5067482;28;20537;-57
2023/09/08 07:02:40;;;;;;;6.60;4.73;;;;;;;-143.84;44.93;44911.97;5068192;28;20440;-57
2023/09/08 07:05:08;;;;;;;7.23;3.97;;;;;;;-143.84;45.04;44906.25;5067681;28;20473;-57
2023/09/08 07:07:35;;;;;;;8.87;4.10;;;;;;;-143.84;45.21;44900.53;5068167;28;20532;-57
2023/09/08 07:10:05;;;;;;;9.03;4.30;;;;;;;-143.84;44.73;44908.16;5067596;28;20445;-57
2023/09/08 07:12:32;;;;;;;11.53;3.90;;;;;;;-143.84;42.56;44906.25;5068458;28;20437;-57
2023/09/08 07:15:00;;;;;;;5.40;3.83;;;;;;;-143.84;41.55;44936.72;5068351;28;20452;-57
2023/09/08 07:17:27;;;;;;;4.30;3.70;;;;;;;-143.84;41.50;44919.59;5068381;28;20444;-57
2023/09/08 07:19:54;;;;;;;7.60;4.17;;;;;;;-143.84;41.51;44944.34;5068119;28;20451;-57
2023/09/08 07:22:21;;;;;;;15.23;4.73;;;;;;;-143.84;42.70;44946.25;5067891;28;20441;-57
2023/09/08 07:24:49;;;;;;;9.30;5.17;;;;;;;-143.84;43.67;44921.50;5068095;28;20480;-57
2023/09/08 07:27:19;;;;;;;4.30;4.00;;;;;;;-143.84;45.07;44971.00;5067983;28;20959;-57
2023/09/08 07:29:47;;;;;;;7.00;4.10;;;;;;;-143.84;45.64;44980.53;5068025;28;20456;-57
2023/09/08 07:32:14;;;;;;;5.83;4.23;;;;;;;-143.84;47.50;44982.41;5067321;28;20453;-57
2023/09/08 07:34:42;;;;;;;10.57;4.63;;;;;;;-143.84;48.95;44980.53;5067588;28;20456;-57
2023/09/08 07:37:09;;;;;;;9.93;5.90;;;;;;;-143.84;51.99;44972.91;5067508;28;20962;-57
2023/09/08 07:39:36;;;;;;;8.80;4.80;;;;;;;-143.84;53.41;44990.03;5067688;28;20453;-57
2023/09/08 07:42:03;;;;;;;5.07;4.47;;;;;;;-143.84;55.01;44991.94;5067509;28;20455;-57
2023/09/08 07:44:32;;;;;;;7.17;4.13;;;;;;;-143.84;56.36;44995.75;5067612;28;20449;-58
2023/09/08 07:46:59;;;;;;;9.67;5.10;;;;;;;-143.84;57.80;44993.84;5067689;28;20463;-57
2023/09/08 07:49:26;;;;;;;7.00;4.80;;;;;;;-143.84;60.33;45012.88;5067481;28;20873;-57
2023/09/08 07:51:54;;;;;;;5.43;4.00;;;;;;;-143.84;62.00;45003.38;5070814;28;20449;-57
2023/09/08 07:54:21;;;;;;;9.33;4.30;;;;;;;-143.84;62.88;45018.59;5071374;28;20455;-57
2023/09/08 07:56:50;;;;;;;11.37;5.10;;;;;;;-143.84;64.47;45014.78;5071443;28;20441;-57
2023/09/08 07:59:17;;;;;;;6.87;4.40;;;;;;;-143.84;65.90;44999.56;5070920;28;20494;-57
2023/09/08 08:01:46;;;;;;;6.43;4.10;;;;;;;-143.84;69.01;45028.13;5071436;28;20445;-57
2023/09/08 08:04:13;;;;;;;10.13;5.07;;;;;;;-143.84;70.00;45035.75;5071522;28;20446;-58
2023/09/08 08:06:40;;;;;;;9.30;4.70;;;;;;;-143.84;71.43;45031.94;5071466;28;20483;-57
2023/09/08 08:09:07;;;;;;;12.10;5.50;;;;;;;-143.84;71.85;45018.59;5071179;28;20452;-57
2023/09/08 08:11:34;;;;;;;9.53;5.10;;;;;;;-143.84;72.72;45020.50;5071170;28;20475;-57
2023/09/08 08:14:02;;;;;;;7.23;5.23;;;;;;;-143.84;72.39;45052.88;5071208;28;20453;-57
2023/09/08 08:16:29;;;;;;;13.27;5.53;;;;;;;-143.84;72.81;45068.13;5070805;28;20514;-57
2023/09/08 08:18:58;;;;;;;11.23;4.80;;;;;;;-143.84;72.05;45028.13;5070917;28;20440;-57
2023/09/08 08:21:26;;;;;;;11.40;5.17;;;;;;;-143.84;72.54;45035.75;5071579;28;20524;-57
2023/09/08 08:23:53;;;;;;;11.27;5.67;;;;;;;-143.84;72.27;45024.31;5070854;28;20889;-57
2023/09/08 08:26:20;;;;;;;14.70;5.67;;;;;;;-143.84;72.41;45010.97;5070717;28;20480;-57
2023/09/08 08:28:47;;;;;;;6.20;4.57;;;;;;;-143.84;72.11;45066.22;5070715;28;20452;-54
2023/09/08 08:31:14;;;;;;;11.43;5.23;;;;;;;-143.84;72.31;45031.94;5070822;28;20477;-54
2023/09/08 08:33:42;;;;;;;12.97;4.93;;;;;;;-143.84;72.22;45022.41;5070805;28;20452;-54
2023/09/08 08:36:11;;;;;;;6.30;5.10;;;;;;;-143.84;71.98;45005.28;5070816;28;20472;-54
2023/09/08 08:38:38;;;;;;;12.90;4.37;;;;;;;-143.84;71.59;45035.75;5071015;28;20811;-54
2023/09/08 08:41:05;;;;;;;4.30;3.93;;;;;;;-143.84;71.69;45056.69;5070761;28;20452;-53
2023/09/08 08:43:33;;;;;;;10.10;4.60;;;;;;;-143.84;71.97;45052.88;5070353;28;20459;-53
2023/09/08 08:46:02;;;;;;;8.70;4.87;;;;;;;-143.84;71.79;45041.44;5070818;28;20472;-54
2023/09/08 08:48:31;;;;;;;6.80;4.77;;;;;;;-143.84;71.24;45039.53;5070702;28;21053;-54
2023/09/08 08:50:59;;;;;;;7.50;4.33;;;;;;;-143.84;71.29;45012.88;5070112;28;20440;-54
2023/09/08 08:53:28;;;;;;;13.60;5.00;;;;;;;-143.84;70.72;45014.78;5070416;28;20506;-54
2023/09/08 08:56:00;;;;;;;7.50;4.37;;;;;;;-143.84;70.08;45030.03;5070372;28;20449;-54
2023/09/08 08:58:28;;;;;;;10.40;5.27;;;;;;;-143.84;69.98;45018.59;5070655;28;20452;-54
2023/09/08 09:00:56;;;;;;;8.57;4.40;;;;;;;-143.84;68.61;45012.88;5070380;28;20449;-54
2023/09/08 09:03:27;;;;;;;5.37;4.70;;;;;;;-143.84;68.55;45016.69;5069550;28;20522;-54
2023/09/08 09:05:54;;;;;;;5.40;4.00;;;;;;;-143.84;66.77;45058.59;5070353;28;20829;-54
2023/09/08 09:08:23;;;;;;;7.83;4.63;;;;;;;-143.84;67.37;45030.03;5069890;28;20445;-53
2023/09/08 09:10:52;;;;;;;9.73;3.70;;;;;;;-143.84;63.73;45014.78;5055976;28;20466;-54
2023/09/08 09:13:19;;;;;;;5.43;3.47;;;;;;;-143.84;63.28;45018.59;5069937;28;20441;-54
2023/09/08 09:15:46;;;;;;;10.53;4.00;;;;;;;-143.84;59.48;45024.31;5070459;28;20839;-54
2023/09/08 09:18:13;;;;;;;4.33;3.50;;;;;;;-143.84;59.68;45003.38;5070890;28;20443;-55
2023/09/08 09:20:41;;;;;;;15.83;4.40;;;;;;;-143.84;58.39;45009.09;5070576;28;20452;-55
2023/09/08 09:23:10;;;;;;;10.07;3.83;;;;;;;-143.84;56.09;45010.97;5070430;28;20451;-55
2023/09/08 09:25:37;;;;;;;13.03;3.87;;;;;;;-143.84;55.97;45016.69;5070699;28;20522;-55
2023/09/08 09:28:07;;;;;;;10.30;4.57;;;;;;;-143.84;56.99;44999.56;5070431;28;20460;-55
2023/09/08 09:30:48;;;;;;;17.23;5.20;;;;;;;-143.84;56.20;45016.69;5070249;28;20441;-55
2023/09/08 09:33:16;;;;;;;11.60;3.80;;;;;;;-143.84;56.40;44988.13;5069822;28;20551;-55
2023/09/08 09:35:45;;;;;;;13.40;3.50;;;;;;;-143.84;50.56;44980.53;5069966;28;20467;-55
2023/09/08 09:38:12;;;;;;;6.40;3.90;;;;;;;-143.84;49.74;44976.72;5070347;28;20468;-55
2023/09/08 09:40:40;;;;;;;10.97;3.60;;;;;;;-143.84;49.51;44974.81;5070069;28;20449;-55
2023/09/08 09:43:09;;;;;;;6.60;3.80;;;;;;;-143.84;48.17;44976.72;5066091;28;20974;-55
2023/09/08 09:45:37;;;;;;;7.97;3.67;;;;;;;-143.84;47.68;44972.91;5069475;28;20472;-55
2023/09/08 09:48:06;;;;;;;8.87;3.70;;;;;;;-143.84;45.80;44980.53;5069803;28;20445;-55
2023/09/08 09:50:35;;;;;;;8.90;3.60;;;;;;;-143.84;45.38;44980.53;5069620;28;20449;-54
2023/09/08 09:53:09;;;;;;;9.50;2.83;;;;;;;-143.84;44.81;44955.75;5069427;28;20452;-54
2023/09/08 09:55:38;;;;;;;9.00;3.20;;;;;;;-143.84;45.56;44953.88;5068925;28;20540;-53
2023/09/08 09:58:06;;;;;;;6.17;3.83;;;;;;;-143.84;45.83;44961.47;5068821;28;21028;-53
2023/09/08 10:00:36;;;;;;;6.10;3.40;;;;;;;-143.84;46.19;44965.28;5069034;28;20472;-53
2023/09/08 10:03:05;;;;;;;14.50;3.37;;;;;;;-143.84;45.50;44953.88;5069093;28;20464;-54
2023/09/08 10:05:32;;;;;;;9.77;3.07;;;;;;;-143.84;45.38;44972.91;5068766;28;20897;-57
2023/09/08 10:08:00;;;;;;;9.40;3.03;;;;;;;-143.84;45.67;44965.28;5068949;28;20475;-57
2023/09/08 10:10:30;;;;;;;7.60;3.77;;;;;;;-143.84;46.24;44955.75;5069187;28;20528;-58
2023/09/08 10:13:03;;;;;;;7.93;3.50;;;;;;;-143.84;46.69;44961.47;5068254;28;20532;-54
2023/09/08 10:15:32;;;;;;;11.17;3.73;;;;;;;-143.84;44.47;44946.25;5068631;28;20855;-54
2023/09/08 10:18:05;;;;;;;12.63;3.47;;;;;;;-143.84;43.97;44951.97;5068461;28;20445;-54
2023/09/08 10:20:34;;;;;;;5.87;3.77;;;;;;;-143.84;43.56;44948.16;5069016;28;20453;-54
2023/09/08 10:23:09;;;;;;;10.87;3.70;;;;;;;-143.84;43.60;44976.72;5052380;28;21006;-53
2023/09/08 10:25:43;;;;;;;7.97;3.23;;;;;;;-143.84;44.28;44951.97;5068420;28;20472;-53
2023/09/08 10:28:11;;;;;;;3.60;3.10;;;;;;;-143.84;44.28;44955.75;5068835;28;20436;-54
2023/09/08 10:30:39;;;;;;;7.17;3.57;;;;;;;-143.84;44.64;44995.75;5068123;28;20440;-53
2023/09/08 10:33:08;;;;;;;12.20;4.00;;;;;;;-143.84;45.82;44969.09;5068826;28;20436;-54
2023/09/08 10:35:36;;;;;;;11.07;3.90;;;;;;;-143.84;46.97;44980.53;5068743;28;20868;-54
2023/09/08 10:38:25;;;;;;;9.23;3.03;;;;;;;-143.84;46.87;44946.25;5068541;28;20444;-54
2023/09/08 10:40:53;;;;;;;7.50;3.00;;;;;;;-143.84;46.96;44993.84;5065205;28;21000;-54
2023/09/08 10:43:21;;;;;;;6.23;3.13;;;;;;;-143.84;46.14;44969.09;5068140;28;20451;-54
2023/09/08 10:45:48;;;;;;;7.50;3.30;;;;;;;-143.84;46.41;44972.91;5068248;28;20562;-54
2023/09/08 10:48:17;;;;;;;9.50;3.00;;;;;;;-143.84;46.99;44965.28;5065685;28;20816;-56
2023/09/08 10:50:44;;;;;;;9.27;3.47;;;;;;;-143.84;46.48;44984.31;5058934;28;20453;-56
2023/09/08 10:53:15;;;;;;;5.20;3.23;;;;;;;-143.84;46.28;44982.41;5068451;28;20449;-56
2023/09/08 10:55:47;;;;;;;6.77;3.80;;;;;;;-143.84;46.37;44993.84;5068168;28;20456;-56
2023/09/08 10:58:20;;;;;;;11.53;3.53;;;;;;;-143.84;46.04;45012.88;5067927;28;20457;-56
2023/09/08 11:00:54;;;;;;;3.60;3.00;;;;;;;-143.84;46.34;44980.53;5068306;28;20441;-56
2023/09/08 11:03:29;;;;;;;11.67;2.73;;;;;;;-143.84;47.57;44974.81;5067743;28;20441;-53
2023/09/08 11:05:58;;;;;;;9.00;3.30;;;;;;;-143.84;45.64;44986.22;5067804;28;20498;-53
2023/09/08 11:08:26;;;;;;;5.17;4.70;;;;;;;-143.84;44.84;45007.19;5068021;28;20445;-54
2023/09/08 11:10:53;;;;;;;5.53;3.20;;;;;;;-143.84;44.64;44986.22;5068188;28;20490;-54
2023/09/08 11:13:20;;;;;;;4.97;2.37;;;;;;;-143.84;42.82;44980.53;5068133;28;20816;-53
2023/09/08 11:15:47;;;;;;;18.63;3.70;;;;;;;-143.84;42.96;44969.09;5067873;28;20954;-53
2023/09/08 11:18:14;;;;;;;6.70;3.37;;;;;;;-143.84;43.37;44961.47;5068396;28;21148;-53